sensor_id;sensor_type;location;lat;lon;timestamp;temperature;humidity
55642;DHT22;41509;53.108;6.100;2023-04-01T00:00:23;10.10;99.90
55642;DHT22;41509;53.108;6.100;2023-04-01T00:02:48;10.10;99.90
55642;DHT22;41509;53.108;6.100;2023-04-01T00:05:16;10.10;99.90
55642;DHT22;41509;53.108;6.100;2023-04-01T00:07:45;10.10;99.90
55642;DHT22;41509;53.108;6.100;2023-04-01T00:10:12;10.20;99.90
55642;DHT22;41509;53.108;6.100;2023-04-01T00:12:39;10.20;99.90
55642;DHT22;41509;53.108;6.100;2023-04-01T00:15:06;10.20;99.90
55642;DHT22;41509;53.108;6.100;2023-04-01T00:17:34;10.20;99.90
55642;DHT22;41509;53.108;6.100;2023-04-01T00:20:00;10.20;99.90
55642;DHT22;41509;53.108;6.100;2023-04-01T00:22:26;10.10;99.90
55642;DHT22;41509;53.108;6.100;2023-04-01T00:24:54;10.20;99.90
55642;DHT22;41509;53.108;6.100;2023-04-01T00:27:23;10.20;99.90
55642;DHT22;41509;53.108;6.100;2023-04-01T00:29:48;10.20;99.90
55642;DHT22;41509;53.108;6.100;2023-04-01T00:32:14;10.20;99.90
55642;DHT22;41509;53.108;6.100;2023-04-01T00:34:40;10.20;99.90
55642;DHT22;41509;53.108;6.100;2023-04-01T00:37:10;10.20;99.90
55642;DHT22;41509;53.108;6.100;2023-04-01T00:39:36;10.10;99.90
55642;DHT22;41509;53.108;6.100;2023-04-01T00:42:03;10.20;99.90
55642;DHT22;41509;53.108;6.100;2023-04-01T00:44:30;10.20;99.90
55642;DHT22;41509;53.108;6.100;2023-04-01T00:46:56;10.20;99.90
55642;DHT22;41509;53.108;6.100;2023-04-01T00:49:24;10.10;99.90
55642;DHT22;41509;53.108;6.100;2023-04-01T00:51:54;10.20;99.90
55642;DHT22;41509;53.108;6.100;2023-04-01T00:54:25;10.20;99.90
55642;DHT22;41509;53.108;6.100;2023-04-01T00:59:37;10.20;99.90
55642;DHT22;41509;53.108;6.100;2023-04-01T01:02:07;10.20;99.90
55642;DHT22;41509;53.108;6.100;2023-04-01T01:04:35;10.20;99.90
55642;DHT22;41509;53.108;6.100;2023-04-01T01:07:31;10.10;99.90
55642;DHT22;41509;53.108;6.100;2023-04-01T01:37:25;10.20;99.90
55642;DHT22;41509;53.108;6.100;2023-04-01T01:39:58;10.20;99.90
55642;DHT22;41509;53.108;6.100;2023-04-01T01:42:26;10.20;99.90
55642;DHT22;41509;53.108;6.100;2023-04-01T01:44:55;10.20;99.90
55642;DHT22;41509;53.108;6.100;2023-04-01T01:47:22;10.30;99.90
55642;DHT22;41509;53.108;6.100;2023-04-01T01:49:49;10.20;99.90
55642;DHT22;41509;53.108;6.100;2023-04-01T01:52:17;10.20;99.90
55642;DHT22;41509;53.108;6.100;2023-04-01T01:54:54;10.20;99.90
55642;DHT22;41509;53.108;6.100;2023-04-01T01:57:31;10.20;99.90
55642;DHT22;41509;53.108;6.100;2023-04-01T02:00:03;10.10;99.90
55642;DHT22;41509;53.108;6.100;2023-04-01T02:02:42;10.10;99.90
55642;DHT22;41509;53.108;6.100;2023-04-01T02:05:14;10.20;99.90
55642;DHT22;41509;53.108;6.100;2023-04-01T02:07:44;10.20;99.90
55642;DHT22;41509;53.108;6.100;2023-04-01T02:10:12;10.20;99.90
55642;DHT22;41509;53.108;6.100;2023-04-01T02:12:38;10.10;99.90
55642;DHT22;41509;53.108;6.100;2023-04-01T02:15:09;10.20;99.90
55642;DHT22;41509;53.108;6.100;2023-04-01T02:17:39;10.10;99.90
55642;DHT22;41509;53.108;6.100;2023-04-01T02:20:11;10.10;99.90
55642;DHT22;41509;53.108;6.100;2023-04-01T02:22:46;10.10;99.90
55642;DHT22;41509;53.108;6.100;2023-04-01T02:25:14;10.20;99.90
55642;DHT22;41509;53.108;6.100;2023-04-01T02:27:43;10.10;99.90
55642;DHT22;41509;53.108;6.100;2023-04-01T02:30:10;10.10;99.90
55642;DHT22;41509;53.108;6.100;2023-04-01T02:32:38;10.10;99.90
55642;DHT22;41509;53.108;6.100;2023-04-01T02:35:09;10.20;99.90
55642;DHT22;41509;53.108;6.100;2023-04-01T02:37:36;10.10;99.90
55642;DHT22;41509;53.108;6.100;2023-04-01T02:40:04;10.10;99.90
55642;DHT22;41509;53.108;6.100;2023-04-01T02:42:31;10.20;99.90
55642;DHT22;41509;53.108;6.100;2023-04-01T02:44:57;10.20;99.90
55642;DHT22;41509;53.108;6.100;2023-04-01T02:47:23;10.10;99.90
55642;DHT22;41509;53.108;6.100;2023-04-01T02:49:48;10.10;99.90
55642;DHT22;41509;53.108;6.100;2023-04-01T02:52:14;10.10;99.90
55642;DHT22;41509;53.108;6.100;2023-04-01T02:54:43;10.10;99.90
55642;DHT22;41509;53.108;6.100;2023-04-01T02:57:08;10.10;99.90
55642;DHT22;41509;53.108;6.100;2023-04-01T02:59:34;10.10;99.90
55642;DHT22;41509;53.108;6.100;2023-04-01T03:01:59;10.10;99.90
55642;DHT22;41509;53.108;6.100;2023-04-01T03:04:25;10.00;99.90
55642;DHT22;41509;53.108;6.100;2023-04-01T03:06:51;10.00;99.90
55642;DHT22;41509;53.108;6.100;2023-04-01T03:09:18;10.00;99.90
55642;DHT22;41509;53.108;6.100;2023-04-01T03:11:44;10.00;99.90
55642;DHT22;41509;53.108;6.100;2023-04-01T03:14:10;10.00;99.90
55642;DHT22;41509;53.108;6.100;2023-04-01T03:16:36;10.00;99.90
55642;DHT22;41509;53.108;6.100;2023-04-01T03:19:01;10.00;99.90
55642;DHT22;41509;53.108;6.100;2023-04-01T03:21:27;10.00;99.90
55642;DHT22;41509;53.108;6.100;2023-04-01T03:23:53;10.00;99.90
55642;DHT22;41509;53.108;6.100;2023-04-01T03:26:19;10.00;99.90
55642;DHT22;41509;53.108;6.100;2023-04-01T03:28:45;10.00;99.90
55642;DHT22;41509;53.108;6.100;2023-04-01T03:31:11;10.00;99.90
55642;DHT22;41509;53.108;6.100;2023-04-01T03:33:37;10.00;99.90
55642;DHT22;41509;53.108;6.100;2023-04-01T03:36:03;10.00;99.90
55642;DHT22;41509;53.108;6.100;2023-04-01T03:38:32;10.00;99.90
55642;DHT22;41509;53.108;6.100;2023-04-01T03:40:58;10.00;99.90
55642;DHT22;41509;53.108;6.100;2023-04-01T03:43:25;10.00;99.90
55642;DHT22;41509;53.108;6.100;2023-04-01T03:45:52;9.90;99.90
55642;DHT22;41509;53.108;6.100;2023-04-01T03:48:18;10.00;99.90
55642;DHT22;41509;53.108;6.100;2023-04-01T03:50:46;10.00;99.90
55642;DHT22;41509;53.108;6.100;2023-04-01T03:53:12;10.00;99.90
55642;DHT22;41509;53.108;6.100;2023-04-01T03:55:41;10.00;99.90
55642;DHT22;41509;53.108;6.100;2023-04-01T03:58:07;10.00;99.90
55642;DHT22;41509;53.108;6.100;2023-04-01T04:00:33;10.00;99.90
55642;DHT22;41509;53.108;6.100;2023-04-01T04:02:59;9.90;99.90
55642;DHT22;41509;53.108;6.100;2023-04-01T04:05:27;10.00;99.90
55642;DHT22;41509;53.108;6.100;2023-04-01T04:07:54;9.90;99.90
55642;DHT22;41509;53.108;6.100;2023-04-01T04:10:20;9.90;99.90
55642;DHT22;41509;53.108;6.100;2023-04-01T04:12:45;10.00;99.90
55642;DHT22;41509;53.108;6.100;2023-04-01T04:15:11;9.90;99.90
55642;DHT22;41509;53.108;6.100;2023-04-01T04:17:37;10.00;99.90
55642;DHT22;41509;53.108;6.100;2023-04-01T04:20:04;10.00;99.90
55642;DHT22;41509;53.108;6.100;2023-04-01T04:22:29;9.90;99.90
55642;DHT22;41509;53.108;6.100;2023-04-01T04:24:55;10.00;99.90
55642;DHT22;41509;53.108;6.100;2023-04-01T04:27:21;9.90;99.90
55642;DHT22;41509;53.108;6.100;2023-04-01T04:29:46;9.90;99.90
55642;DHT22;41509;53.108;6.100;2023-04-01T04:32:12;9.90;99.90
55642;DHT22;41509;53.108;6.100;2023-04-01T04:34:38;10.00;99.90
55642;DHT22;41509;53.108;6.100;2023-04-01T04:37:03;9.90;99.90
55642;DHT22;41509;53.108;6.100;2023-04-01T04:39:29;9.90;99.90
55642;DHT22;41509;53.108;6.100;2023-04-01T04:41:55;10.00;99.90
55642;DHT22;41509;53.108;6.100;2023-04-01T04:44:21;9.90;99.90
55642;DHT22;41509;53.108;6.100;2023-04-01T04:46:47;9.90;99.90
55642;DHT22;41509;53.108;6.100;2023-04-01T04:49:13;10.00;99.90
55642;DHT22;41509;53.108;6.100;2023-04-01T04:51:39;9.90;99.90
55642;DHT22;41509;53.108;6.100;2023-04-01T04:54:05;9.90;99.90
55642;DHT22;41509;53.108;6.100;2023-04-01T04:56:31;9.90;99.90
55642;DHT22;41509;53.108;6.100;2023-04-01T04:58:58;9.90;99.90
55642;DHT22;41509;53.108;6.100;2023-04-01T05:01:24;9.90;99.90
55642;DHT22;41509;53.108;6.100;2023-04-01T05:03:52;9.90;99.90
55642;DHT22;41509;53.108;6.100;2023-04-01T05:06:20;9.90;99.90
55642;DHT22;41509;53.108;6.100;2023-04-01T05:08:47;9.90;99.90
55642;DHT22;41509;53.108;6.100;2023-04-01T05:11:15;9.90;99.90
55642;DHT22;41509;53.108;6.100;2023-04-01T05:13:51;9.90;99.90
55642;DHT22;41509;53.108;6.100;2023-04-01T05:16:19;9.90;99.90
55642;DHT22;41509;53.108;6.100;2023-04-01T05:18:46;9.90;99.90
55642;DHT22;41509;53.108;6.100;2023-04-01T05:21:12;9.90;99.90
55642;DHT22;41509;53.108;6.100;2023-04-01T05:23:39;9.90;99.90
55642;DHT22;41509;53.108;6.100;2023-04-01T05:26:05;9.90;99.90
55642;DHT22;41509;53.108;6.100;2023-04-01T05:28:32;9.90;99.90
55642;DHT22;41509;53.108;6.100;2023-04-01T05:31:02;9.90;99.90
55642;DHT22;41509;53.108;6.100;2023-04-01T05:33:29;9.90;99.90
55642;DHT22;41509;53.108;6.100;2023-04-01T05:35:55;9.80;99.90
55642;DHT22;41509;53.108;6.100;2023-04-01T05:38:20;9.90;99.90
55642;DHT22;41509;53.108;6.100;2023-04-01T05:40:46;9.90;99.90
55642;DHT22;41509;53.108;6.100;2023-04-01T05:43:12;9.90;99.90
55642;DHT22;41509;53.108;6.100;2023-04-01T05:45:37;9.90;99.90
55642;DHT22;41509;53.108;6.100;2023-04-01T05:48:03;9.90;99.90
55642;DHT22;41509;53.108;6.100;2023-04-01T05:50:29;9.90;99.90
55642;DHT22;41509;53.108;6.100;2023-04-01T05:52:55;9.90;99.90
55642;DHT22;41509;53.108;6.100;2023-04-01T05:55:20;9.90;99.90
55642;DHT22;41509;53.108;6.100;2023-04-01T05:57:46;9.90;99.90
55642;DHT22;41509;53.108;6.100;2023-04-01T06:00:14;9.90;99.90
55642;DHT22;41509;53.108;6.100;2023-04-01T06:02:40;9.90;99.90
55642;DHT22;41509;53.108;6.100;2023-04-01T06:05:19;9.90;99.90
55642;DHT22;41509;53.108;6.100;2023-04-01T06:07:45;9.90;99.90
55642;DHT22;41509;53.108;6.100;2023-04-01T06:10:17;9.90;99.90
55642;DHT22;41509;53.108;6.100;2023-04-01T06:13:30;9.90;99.90
55642;DHT22;41509;53.108;6.100;2023-04-01T06:15:40;10.00;99.90
55642;DHT22;41509;53.108;6.100;2023-04-01T06:19:15;9.90;99.90
55642;DHT22;41509;53.108;6.100;2023-04-01T06:26:30;10.00;99.90
55642;DHT22;41509;53.108;6.100;2023-04-01T06:29:25;10.00;99.90
55642;DHT22;41509;53.108;6.100;2023-04-01T06:32:11;10.00;99.90
55642;DHT22;41509;53.108;6.100;2023-04-01T06:42:28;10.10;99.90
55642;DHT22;41509;53.108;6.100;2023-04-01T06:56:22;10.10;99.90
55642;DHT22;41509;53.108;6.100;2023-04-01T06:59:08;10.10;99.90
55642;DHT22;41509;53.108;6.100;2023-04-01T07:01:42;10.20;99.90
55642;DHT22;41509;53.108;6.100;2023-04-01T07:04:35;10.20;99.90
55642;DHT22;41509;53.108;6.100;2023-04-01T07:09:58;10.20;99.90
55642;DHT22;41509;53.108;6.100;2023-04-01T07:14:58;10.30;99.90
55642;DHT22;41509;53.108;6.100;2023-04-01T07:17:33;10.20;99.90
55642;DHT22;41509;53.108;6.100;2023-04-01T07:20:13;10.20;99.90
55642;DHT22;41509;53.108;6.100;2023-04-01T07:22:44;10.20;99.90
55642;DHT22;41509;53.108;6.100;2023-04-01T07:27:47;10.20;99.90
55642;DHT22;41509;53.108;6.100;2023-04-01T07:30:17;10.20;99.90
55642;DHT22;41509;53.108;6.100;2023-04-01T07:35:47;10.20;99.90
55642;DHT22;41509;53.108;6.100;2023-04-01T07:38:40;10.20;99.90
55642;DHT22;41509;53.108;6.100;2023-04-01T07:43:51;10.30;99.90
55642;DHT22;41509;53.108;6.100;2023-04-01T07:51:59;10.50;99.90
55642;DHT22;41509;53.108;6.100;2023-04-01T07:57:15;10.70;99.90
55642;DHT22;41509;53.108;6.100;2023-04-01T07:59:58;10.70;99.90
55642;DHT22;41509;53.108;6.100;2023-04-01T08:02:33;10.80;99.90
55642;DHT22;41509;53.108;6.100;2023-04-01T08:05:14;10.80;99.90
55642;DHT22;41509;53.108;6.100;2023-04-01T08:11:11;10.90;99.90
55642;DHT22;41509;53.108;6.100;2023-04-01T08:16:30;11.00;99.90
55642;DHT22;41509;53.108;6.100;2023-04-01T08:21:55;11.10;99.90
55642;DHT22;41509;53.108;6.100;2023-04-01T08:24:33;11.20;99.90
55642;DHT22;41509;53.108;6.100;2023-04-01T08:27:03;11.20;99.90
55642;DHT22;41509;53.108;6.100;2023-04-01T08:32:18;11.30;99.90
55642;DHT22;41509;53.108;6.100;2023-04-01T08:34:51;11.40;99.90
55642;DHT22;41509;53.108;6.100;2023-04-01T08:37:26;11.40;99.90
55642;DHT22;41509;53.108;6.100;2023-04-01T09:06:53;11.70;99.90
55642;DHT22;41509;53.108;6.100;2023-04-01T09:12:15;11.70;99.90
55642;DHT22;41509;53.108;6.100;2023-04-01T09:31:32;11.60;99.90
55642;DHT22;41509;53.108;6.100;2023-04-01T09:34:24;11.60;99.90
55642;DHT22;41509;53.108;6.100;2023-04-01T09:37:20;11.50;99.90
55642;DHT22;41509;53.108;6.100;2023-04-01T09:40:37;11.40;99.90
55642;DHT22;41509;53.108;6.100;2023-04-01T09:43:05;11.30;99.90
55642;DHT22;41509;53.108;6.100;2023-04-01T09:48:14;11.20;99.90
55642;DHT22;41509;53.108;6.100;2023-04-01T09:56:14;11.20;99.90
55642;DHT22;41509;53.108;6.100;2023-04-01T10:01:18;11.10;99.90
55642;DHT22;41509;53.108;6.100;2023-04-01T10:15:58;10.90;99.90
55642;DHT22;41509;53.108;6.100;2023-04-01T10:19:02;10.90;99.90
55642;DHT22;41509;53.108;6.100;2023-04-01T10:27:03;10.90;99.90
55642;DHT22;41509;53.108;6.100;2023-04-01T10:32:37;10.90;99.90
55642;DHT22;41509;53.108;6.100;2023-04-01T10:46:31;10.80;99.90
55642;DHT22;41509;53.108;6.100;2023-04-01T10:55:36;10.70;99.90
55642;DHT22;41509;53.108;6.100;2023-04-01T11:01:02;10.80;99.90
55642;DHT22;41509;53.108;6.100;2023-04-01T11:18:41;10.70;99.90
55642;DHT22;41509;53.108;6.100;2023-04-01T11:21:30;10.70;99.90
55642;DHT22;41509;53.108;6.100;2023-04-01T11:24:08;10.60;99.90
55642;DHT22;41509;53.108;6.100;2023-04-01T11:26:51;10.60;99.90
55642;DHT22;41509;53.108;6.100;2023-04-01T11:49:46;11.10;99.90
55642;DHT22;41509;53.108;6.100;2023-04-01T12:06:14;11.00;99.90
55642;DHT22;41509;53.108;6.100;2023-04-01T12:17:19;10.90;99.90
55642;DHT22;41509;53.108;6.100;2023-04-01T12:28:22;10.90;99.90
55642;DHT22;41509;53.108;6.100;2023-04-01T12:36:35;10.80;99.90
55642;DHT22;41509;53.108;6.100;2023-04-01T12:58:03;10.60;99.90
55642;DHT22;41509;53.108;6.100;2023-04-01T13:03:44;10.50;99.90
55642;DHT22;41509;53.108;6.100;2023-04-01T13:06:24;10.50;99.90
55642;DHT22;41509;53.108;6.100;2023-04-01T13:08:57;10.50;99.90
55642;DHT22;41509;53.108;6.100;2023-04-01T13:16:45;10.50;99.90
55642;DHT22;41509;53.108;6.100;2023-04-01T13:19:38;10.50;99.90
55642;DHT22;41509;53.108;6.100;2023-04-01T13:22:51;10.50;99.90
55642;DHT22;41509;53.108;6.100;2023-04-01T13:25:32;10.50;99.90
55642;DHT22;41509;53.108;6.100;2023-04-01T13:30:39;10.60;99.90
55642;DHT22;41509;53.108;6.100;2023-04-01T13:36:16;10.60;99.90
55642;DHT22;41509;53.108;6.100;2023-04-01T13:39:13;10.60;99.90
55642;DHT22;41509;53.108;6.100;2023-04-01T13:44:43;10.50;99.90
55642;DHT22;41509;53.108;6.100;2023-04-01T13:55:37;10.40;99.90
55642;DHT22;41509;53.108;6.100;2023-04-01T13:58:13;10.40;99.90
55642;DHT22;41509;53.108;6.100;2023-04-01T14:00:54;10.40;99.90
55642;DHT22;41509;53.108;6.100;2023-04-01T14:12:05;10.30;99.90
55642;DHT22;41509;53.108;6.100;2023-04-01T14:14:47;10.30;99.90
55642;DHT22;41509;53.108;6.100;2023-04-01T14:22:48;10.20;99.90
55642;DHT22;41509;53.108;6.100;2023-04-01T14:28:35;10.10;99.90
55642;DHT22;41509;53.108;6.100;2023-04-01T14:31:30;10.10;99.90
55642;DHT22;41509;53.108;6.100;2023-04-01T14:39:52;9.90;99.90
55642;DHT22;41509;53.108;6.100;2023-04-01T14:50:08;9.80;99.90
55642;DHT22;41509;53.108;6.100;2023-04-01T14:52:39;9.90;99.90
55642;DHT22;41509;53.108;6.100;2023-04-01T14:55:43;9.80;99.90
55642;DHT22;41509;53.108;6.100;2023-04-01T14:58:13;9.70;99.90
55642;DHT22;41509;53.108;6.100;2023-04-01T15:00:50;9.70;99.90
55642;DHT22;41509;53.108;6.100;2023-04-01T15:03:36;9.70;99.90
55642;DHT22;41509;53.108;6.100;2023-04-01T15:06:33;9.70;99.90
55642;DHT22;41509;53.108;6.100;2023-04-01T15:18:07;9.40;99.90
55642;DHT22;41509;53.108;6.100;2023-04-01T15:21:04;9.50;99.90
55642;DHT22;41509;53.108;6.100;2023-04-01T15:26:51;9.30;99.90
55642;DHT22;41509;53.108;6.100;2023-04-01T15:31:50;9.20;99.90
55642;DHT22;41509;53.108;6.100;2023-04-01T15:37:20;9.20;99.90
55642;DHT22;41509;53.108;6.100;2023-04-01T15:50:47;9.00;99.90
55642;DHT22;41509;53.108;6.100;2023-04-01T15:53:41;8.90;99.90
55642;DHT22;41509;53.108;6.100;2023-04-01T16:01:59;8.80;99.90
55642;DHT22;41509;53.108;6.100;2023-04-01T16:04:42;8.70;99.90
55642;DHT22;41509;53.108;6.100;2023-04-01T16:07:30;8.70;99.90
55642;DHT22;41509;53.108;6.100;2023-04-01T16:26:35;8.50;99.90
55642;DHT22;41509;53.108;6.100;2023-04-01T16:29:19;8.40;99.90
55642;DHT22;41509;53.108;6.100;2023-04-01T16:35:01;8.40;99.90
55642;DHT22;41509;53.108;6.100;2023-04-01T16:58:56;8.10;99.90
55642;DHT22;41509;53.108;6.100;2023-04-01T17:01:49;8.10;99.90
55642;DHT22;41509;53.108;6.100;2023-04-01T17:04:34;8.00;99.90
55642;DHT22;41509;53.108;6.100;2023-04-01T17:28:28;7.70;99.90
55642;DHT22;41509;53.108;6.100;2023-04-01T17:35:08;7.60;99.90
55642;DHT22;41509;53.108;6.100;2023-04-01T17:37:34;7.60;99.90
55642;DHT22;41509;53.108;6.100;2023-04-01T17:46:25;7.50;99.90
55642;DHT22;41509;53.108;6.100;2023-04-01T17:48:55;7.40;99.90
55642;DHT22;41509;53.108;6.100;2023-04-01T18:02:33;7.40;99.90
55642;DHT22;41509;53.108;6.100;2023-04-01T18:17:17;7.30;99.90
55642;DHT22;41509;53.108;6.100;2023-04-01T18:22:58;7.20;99.90
55642;DHT22;41509;53.108;6.100;2023-04-01T18:25:33;7.20;99.90
55642;DHT22;41509;53.108;6.100;2023-04-01T18:39:47;7.10;99.90
55642;DHT22;41509;53.108;6.100;2023-04-01T18:45:28;7.10;99.90
55642;DHT22;41509;53.108;6.100;2023-04-01T18:50:57;7.10;99.90
55642;DHT22;41509;53.108;6.100;2023-04-01T18:53:34;7.00;99.90
55642;DHT22;41509;53.108;6.100;2023-04-01T18:56:08;7.00;99.90
55642;DHT22;41509;53.108;6.100;2023-04-01T18:58:54;7.00;99.90
55642;DHT22;41509;53.108;6.100;2023-04-01T19:01:31;7.00;99.90
55642;DHT22;41509;53.108;6.100;2023-04-01T19:04:21;7.00;99.90
55642;DHT22;41509;53.108;6.100;2023-04-01T19:07:33;7.00;99.90
55642;DHT22;41509;53.108;6.100;2023-04-01T19:09:47;7.00;99.90
55642;DHT22;41509;53.108;6.100;2023-04-01T19:12:31;7.00;99.90
55642;DHT22;41509;53.108;6.100;2023-04-01T19:15:26;6.90;99.90
55642;DHT22;41509;53.108;6.100;2023-04-01T19:20:54;6.90;99.90
55642;DHT22;41509;53.108;6.100;2023-04-01T19:23:47;6.90;99.90
55642;DHT22;41509;53.108;6.100;2023-04-01T19:26:34;6.80;99.90
55642;DHT22;41509;53.108;6.100;2023-04-01T19:37:59;6.70;99.90
55642;DHT22;41509;53.108;6.100;2023-04-01T19:43:46;6.70;99.90
55642;DHT22;41509;53.108;6.100;2023-04-01T19:49:32;6.60;99.90
55642;DHT22;41509;53.108;6.100;2023-04-01T19:52:37;6.60;99.90
55642;DHT22;41509;53.108;6.100;2023-04-01T20:00:33;6.60;99.90
55642;DHT22;41509;53.108;6.100;2023-04-01T20:03:43;6.60;99.90
55642;DHT22;41509;53.108;6.100;2023-04-01T20:06:35;6.50;99.90
55642;DHT22;41509;53.108;6.100;2023-04-01T20:09:14;6.50;99.90
55642;DHT22;41509;53.108;6.100;2023-04-01T20:14:58;6.50;99.90
55642;DHT22;41509;53.108;6.100;2023-04-01T20:17:44;6.40;99.90
55642;DHT22;41509;53.108;6.100;2023-04-01T20:25:40;6.30;99.90
55642;DHT22;41509;53.108;6.100;2023-04-01T20:28:24;6.30;99.90
55642;DHT22;41509;53.108;6.100;2023-04-01T20:42:13;6.30;99.90
55642;DHT22;41509;53.108;6.100;2023-04-01T20:50:42;6.20;99.90
55642;DHT22;41509;53.108;6.100;2023-04-01T21:19:08;6.00;99.90
55642;DHT22;41509;53.108;6.100;2023-04-01T21:30:32;6.00;99.90
55642;DHT22;41509;53.108;6.100;2023-04-01T22:02:48;5.90;99.90
55642;DHT22;41509;53.108;6.100;2023-04-01T22:05:30;5.90;99.90
55642;DHT22;41509;53.108;6.100;2023-04-01T22:13:59;5.80;99.90
55642;DHT22;41509;53.108;6.100;2023-04-01T22:16:48;5.80;99.90
55642;DHT22;41509;53.108;6.100;2023-04-01T22:22:24;5.80;99.90
55642;DHT22;41509;53.108;6.100;2023-04-01T22:25:13;5.80;99.90
55642;DHT22;41509;53.108;6.100;2023-04-01T22:27:47;5.80;99.90
55642;DHT22;41509;53.108;6.100;2023-04-01T22:30:42;5.80;99.90
55642;DHT22;41509;53.108;6.100;2023-04-01T22:33:32;5.70;99.90
55642;DHT22;41509;53.108;6.100;2023-04-01T22:36:22;5.80;99.90
55642;DHT22;41509;53.108;6.100;2023-04-01T22:42:03;5.80;99.90
55642;DHT22;41509;53.108;6.100;2023-04-01T22:47:25;5.70;99.90
55642;DHT22;41509;53.108;6.100;2023-04-01T22:50:26;5.70;99.90
55642;DHT22;41509;53.108;6.100;2023-04-01T22:53:35;5.60;99.90
55642;DHT22;41509;53.108;6.100;2023-04-01T22:56:10;5.60;99.90
55642;DHT22;41509;53.108;6.100;2023-04-01T22:58:43;5.60;99.90
55642;DHT22;41509;53.108;6.100;2023-04-01T23:01:15;5.60;99.90
55642;DHT22;41509;53.108;6.100;2023-04-01T23:03:44;5.60;99.90
55642;DHT22;41509;53.108;6.100;2023-04-01T23:06:20;5.60;99.90
55642;DHT22;41509;53.108;6.100;2023-04-01T23:12:09;5.50;99.90
55642;DHT22;41509;53.108;6.100;2023-04-01T23:14:52;5.50;99.90
55642;DHT22;41509;53.108;6.100;2023-04-01T23:30:46;5.30;99.90
55642;DHT22;41509;53.108;6.100;2023-04-01T23:36:10;5.20;99.90
55642;DHT22;41509;53.108;6.100;2023-04-01T23:38:39;5.10;99.90
55642;DHT22;41509;53.108;6.100;2023-04-01T23:41:09;5.10;99.90
55642;DHT22;41509;53.108;6.100;2023-04-01T23:43:43;5.00;99.90
55642;DHT22;41509;53.108;6.100;2023-04-01T23:46:09;5.00;99.90
55642;DHT22;41509;53.108;6.100;2023-04-01T23:48:39;5.00;99.90
55642;DHT22;41509;53.108;6.100;2023-04-01T23:51:22;5.00;99.90
55642;DHT22;41509;53.108;6.100;2023-04-01T23:53:57;5.00;99.90
55642;DHT22;41509;53.108;6.100;2023-04-01T23:56:37;4.90;99.90
55642;DHT22;41509;53.108;6.100;2023-04-01T23:59:04;4.90;99.90
